| time (UTC) | temp F | wind direction | speed MPH | gust MPH | rain 1hr in | rain 24hr in | rain mn in | humidity % | barometer mb |
| 20260902004755 | 71 | 305 | 3.0 | 8.0 | 0.00 | 0.00 | 0.00 | 50 | 1017.4 |
| 20260902004250 | 71 | 290 | 5.0 | 7.0 | 0.00 | 0.00 | 0.00 | 50 | 1017.3 |
| 20260902003745 | 71 | 272 | 3.0 | 6.0 | 0.00 | 0.00 | 0.00 | 50 | 1017.2 |
| 20260902003241 | 72 | 244 | 1.0 | 6.0 | 0.00 | 0.00 | 0.00 | 49 | 1017.3 |
| 20260902002736 | 71 | 260 | 6.0 | 11.0 | 0.00 | 0.00 | 0.00 | 51 | 1017.3 |
| 20260902002236 | 72 | 248 | 4.0 | 9.0 | 0.00 | 0.00 | 0.00 | 50 | 1017.5 |
| 20260902001732 | 73 | 280 | 2.0 | 10.0 | 0.00 | 0.00 | 0.00 | 49 | 1017.6 |
| 20260902001231 | 72 | 293 | 2.0 | 9.0 | 0.00 | 0.00 | 0.00 | 50 | 1017.1 |
| 20260902000725 | 74 | 265 | 2.0 | 3.0 | 0.00 | 0.00 | 0.00 | 47 | 1017.2 |
| 20260902000221 | 73 | 286 | 1.0 | 11.0 | 0.00 | 0.00 | 0.00 | 48 | 1017.4 |
| 20260901235715 | 73 | 224 | 8.0 | 10.0 | 0.00 | 0.00 | 0.00 | 47 | 1017.2 |
| 20260901235210 | 73 | 293 | 5.0 | 7.0 | 0.00 | 0.00 | 0.00 | 47 | 1017.2 |
| 20260901234703 | 73 | 176 | 4.0 | 13.0 | 0.00 | 0.00 | 0.00 | 46 | 1017.2 |
| 20260901234158 | 74 | 205 | 5.0 | 7.0 | 0.00 | 0.00 | 0.00 | 46 | 1017.3 |
| 20260901233653 | 73 | 280 | 5.0 | 10.0 | 0.00 | 0.00 | 0.00 | 46 | 1017.4 |
| 20260901233149 | 73 | 174 | 6.0 | 7.0 | 0.00 | 0.00 | 0.00 | 46 | 1017.3 |
| 20260901232643 | 73 | 188 | 4.0 | 11.0 | 0.00 | 0.00 | 0.00 | 46 | 1017.4 |
| 20260901232133 | 74 | 241 | 2.0 | 14.0 | 0.00 | 0.00 | 0.00 | 46 | 1017.3 |
| 20260901231630 | 74 | 250 | 7.0 | 9.0 | 0.00 | 0.00 | 0.00 | 45 | 1017.5 |
| 20260901231126 | 74 | 288 | 3.0 | 6.0 | 0.00 | 0.00 | 0.00 | 46 | 1017.6 |
| 20260901230621 | 74 | 221 | 6.0 | 8.0 | 0.00 | 0.00 | 0.00 | 45 | 1017.6 |
| 20260901230115 | 74 | 262 | 3.0 | 6.0 | 0.00 | 0.00 | 0.00 | 44 | 1017.6 |
| 20260901225611 | 74 | 200 | 5.0 | 11.0 | 0.00 | 0.00 | 0.00 | 45 | 1017.6 |
| 20260901225110 | 74 | 197 | 3.0 | 6.0 | 0.00 | 0.00 | 0.00 | 46 | 1017.5 |
| 20260901224607 | 74 | 249 | 5.0 | 7.0 | 0.00 | 0.00 | 0.00 | 44 | 1017.5 |
| 20260901224103 | 74 | 262 | 2.0 | 7.0 | 0.00 | 0.00 | 0.00 | 46 | 1017.6 |
| 20260901223557 | 73 | 256 | 8.0 | 14.0 | 0.00 | 0.00 | 0.00 | 46 | 1017.5 |
| 20260901223053 | 74 | 271 | 2.0 | 14.0 | 0.00 | 0.00 | 0.00 | 45 | 1017.7 |
| 20260901222549 | 75 | 209 | 8.0 | 10.0 | 0.00 | 0.00 | 0.00 | 46 | 1017.7 |
| 20260901222045 | 75 | 229 | 4.0 | 11.0 | 0.00 | 0.00 | 0.00 | 45 | 1017.7 |
| 20260901221540 | 73 | 195 | 1.0 | 4.0 | 0.00 | 0.00 | 0.00 | 47 | 1017.8 |
| 20260901221035 | 73 | 166 | 4.0 | 8.0 | 0.00 | 0.00 | 0.00 | 49 | 1017.7 |
| 20260901220530 | 74 | 124 | 6.0 | 11.0 | 0.00 | 0.00 | 0.00 | 48 | 1017.8 |
| 20260901220028 | 73 | 135 | 3.0 | 7.0 | 0.00 | 0.00 | 0.00 | 48 | 1017.9 |
| 20260901215527 | 75 | 229 | 5.0 | 11.0 | 0.00 | 0.00 | 0.00 | 47 | 1017.8 |
| 20260901215027 | 74 | 174 | 3.0 | 9.0 | 0.00 | 0.00 | 0.00 | 49 | 1017.7 |
| 20260901214525 | 75 | 260 | 6.0 | 9.0 | 0.00 | 0.00 | 0.00 | 48 | 1017.7 |
| 20260901214019 | 74 | 249 | 4.0 | 9.0 | 0.00 | 0.00 | 0.00 | 48 | 1017.9 |
| 20260901213514 | 74 | 136 | 5.0 | 9.0 | 0.00 | 0.00 | 0.00 | 47 | 1018.1 |
| 20260901213008 | 73 | 215 | 8.0 | 10.0 | 0.00 | 0.00 | 0.00 | 47 | 1017.8 |
| 20260901212503 | 76 | 176 | 1.0 | 4.0 | 0.00 | 0.00 | 0.00 | 44 | 1017.8 |
| 20260901212000 | 74 | 47 | 6.0 | 10.0 | 0.00 | 0.00 | 0.00 | 46 | 1017.7 |
| 20260901211455 | 75 | 133 | 4.0 | 10.0 | 0.00 | 0.00 | 0.00 | 44 | 1017.7 |
| 20260901210951 | 75 | 285 | 4.0 | 7.0 | 0.00 | 0.00 | 0.00 | 44 | 1017.8 |
| 20260901210446 | 75 | 260 | 2.0 | 10.0 | 0.00 | 0.00 | 0.00 | 44 | 1017.8 |
| 20260901205942 | 75 | 138 | 4.0 | 10.0 | 0.00 | 0.00 | 0.00 | 45 | 1017.8 |
| 20260901205436 | 75 | 164 | 4.0 | 7.0 | 0.00 | 0.00 | 0.00 | 43 | 1018.0 |
| 20260901204931 | 74 | 333 | 3.0 | 8.0 | 0.00 | 0.00 | 0.00 | 45 | 1018.0 |
| 20260901204428 | 74 | 218 | 5.0 | 8.0 | 0.00 | 0.00 | 0.00 | 44 | 1017.9 |
| 20260901203927 | 75 | 186 | 6.0 | 9.0 | 0.00 | 0.00 | 0.00 | 44 | 1017.9 |
| 20260901203422 | 76 | 99 | 3.0 | 6.0 | 0.00 | 0.00 | 0.00 | 42 | 1018.0 |
| 20260901202918 | 75 | 123 | 4.0 | 7.0 | 0.00 | 0.00 | 0.00 | 43 | 1017.9 |
| 20260901202412 | 74 | 285 | 3.0 | 7.0 | 0.00 | 0.00 | 0.00 | 44 | 1018.3 |
| 20260901201909 | 74 | 262 | 4.0 | 8.0 | 0.00 | 0.00 | 0.00 | 45 | 1018.2 |
| 20260901201408 | 73 | 211 | 4.0 | 7.0 | 0.00 | 0.00 | 0.00 | 46 | 1018.1 |
| 20260901200902 | 73 | 205 | 3.0 | 6.0 | 0.00 | 0.00 | 0.00 | 45 | 1018.2 |
| 20260901200357 | 73 | 292 | 2.0 | 8.0 | 0.00 | 0.00 | 0.00 | 46 | 1018.5 |
| 20260901195855 | 75 | 237 | 4.0 | 8.0 | 0.00 | 0.00 | 0.00 | 45 | 1018.4 |
| 20260901195349 | 74 | 243 | 4.0 | 7.0 | 0.00 | 0.00 | 0.00 | 45 | 1018.5 |
| 20260901194844 | 73 | 322 | 9.0 | 11.0 | 0.00 | 0.00 | 0.00 | 45 | 1018.4 |
| 20260901194338 | 74 | 267 | 5.0 | 7.0 | 0.00 | 0.00 | 0.00 | 45 | 1018.4 |
| 20260901193835 | 73 | 148 | 2.0 | 8.0 | 0.00 | 0.00 | 0.00 | 46 | 1018.4 |
| 20260901193334 | 73 | 23 | 1.0 | 9.0 | 0.00 | 0.00 | 0.00 | 46 | 1018.5 |
| 20260901192829 | 73 | 281 | 5.0 | 9.0 | 0.00 | 0.00 | 0.00 | 47 | 1018.7 |
| 20260901192325 | 71 | 332 | 4.0 | 9.0 | 0.00 | 0.00 | 0.00 | 50 | 1018.7 |
| 20260901191820 | 72 | 283 | 4.0 | 13.0 | 0.00 | 0.00 | 0.00 | 49 | 1018.5 |
| 20260901191315 | 73 | 218 | 2.0 | 8.0 | 0.00 | 0.00 | 0.00 | 49 | 1018.6 |
| 20260901190811 | 73 | 335 | 5.0 | 8.0 | 0.00 | 0.00 | 0.00 | 48 | 1018.6 |
| 20260901190305 | 72 | 118 | 3.0 | 7.0 | 0.00 | 0.00 | 0.00 | 49 | 1018.6 |
| 20260901185803 | 73 | 158 | 4.0 | 8.0 | 0.00 | 0.00 | 0.00 | 48 | 1018.9 |
| 20260901185305 | 71 | 171 | 4.0 | 7.0 | 0.00 | 0.00 | 0.00 | 51 | 1018.8 |
| 20260901184758 | 71 | 184 | 6.0 | 7.0 | 0.00 | 0.00 | 0.00 | 51 | 1018.9 |
| 20260901184253 | 71 | 118 | 5.0 | 9.0 | 0.00 | 0.00 | 0.00 | 51 | 1018.8 |
| 20260901183749 | 72 | 225 | 3.0 | 6.0 | 0.00 | 0.00 | 0.00 | 51 | 1018.8 |
| 20260901183249 | 71 | 307 | 4.0 | 8.0 | 0.00 | 0.00 | 0.00 | 51 | 1019.0 |
| 20260901182745 | 71 | 225 | 2.0 | 6.0 | 0.00 | 0.00 | 0.00 | 52 | 1018.7 |
| 20260901182244 | 72 | 293 | 3.0 | 7.0 | 0.00 | 0.00 | 0.00 | 52 | 1018.8 |
| 20260901181739 | 70 | 163 | 3.0 | 9.0 | 0.00 | 0.00 | 0.00 | 54 | 1018.7 |
| 20260901181233 | 70 | 297 | 4.0 | 8.0 | 0.00 | 0.00 | 0.00 | 56 | 1018.7 |
| 20260901180727 | 69 | 225 | 4.0 | 7.0 | 0.00 | 0.00 | 0.00 | 57 | 1018.8 |
| 20260901180227 | 70 | 159 | 1.0 | 9.0 | 0.00 | 0.00 | 0.00 | 56 | 1018.6 |
| 20260901175726 | 70 | 283 | 3.0 | 7.0 | 0.00 | 0.00 | 0.00 | 55 | 1018.3 |
| 20260901175221 | 70 | 220 | 5.0 | 9.0 | 0.00 | 0.00 | 0.00 | 57 | 1018.5 |
| 20260901174716 | 69 | 47 | 3.0 | 6.0 | 0.00 | 0.00 | 0.00 | 56 | 1018.5 |
| 20260901174211 | 70 | 258 | 3.0 | 4.0 | 0.00 | 0.00 | 0.00 | 55 | 1018.6 |
| 20260901173707 | 69 | 138 | 4.0 | 7.0 | 0.00 | 0.00 | 0.00 | 58 | 1018.4 |
| 20260901173201 | 69 | 136 | 2.0 | 7.0 | 0.00 | 0.00 | 0.00 | 58 | 1018.4 |
| 20260901172658 | 69 | 307 | 3.0 | 8.0 | 0.00 | 0.00 | 0.00 | 57 | 1018.3 |
| 20260901172155 | 69 | 262 | 4.0 | 6.0 | 0.00 | 0.00 | 0.00 | 56 | 1018.2 |
| 20260901171649 | 69 | 324 | 3.0 | 7.0 | 0.00 | 0.00 | 0.00 | 56 | 1018.3 |
| 20260901171148 | 69 | 80 | 1.0 | 8.0 | 0.00 | 0.00 | 0.00 | 56 | 1018.4 |
| 20260901170643 | 69 | 199 | 3.0 | 8.0 | 0.00 | 0.00 | 0.00 | 56 | 1018.1 |
| 20260901170143 | 69 | 302 | 4.0 | 7.0 | 0.00 | 0.00 | 0.00 | 56 | 1018.1 |
| 20260901165641 | 69 | 168 | 2.0 | 7.0 | 0.00 | 0.00 | 0.00 | 56 | 1018.1 |
| 20260901165132 | 69 | 203 | 5.0 | 11.0 | 0.00 | 0.00 | 0.00 | 57 | 1018.1 |
| 20260901164628 | 68 | 87 | 2.0 | 7.0 | 0.00 | 0.00 | 0.00 | 57 | 1018.1 |
| 20260901164123 | 68 | 39 | 3.0 | 4.0 | 0.00 | 0.00 | 0.00 | 58 | 1018.1 |
| 20260901163618 | 68 | 212 | 5.0 | 8.0 | 0.00 | 0.00 | 0.00 | 62 | 1018.0 |
| 20260901163117 | 68 | 176 | 4.0 | 10.0 | 0.00 | 0.00 | 0.00 | 63 | 1018.0 |
| 20260901162612 | 68 | 247 | 5.0 | 9.0 | 0.00 | 0.00 | 0.00 | 62 | 1018.4 |
| 20260901162111 | 67 | 97 | 4.0 | 8.0 | 0.00 | 0.00 | 0.00 | 62 | 1018.1 |
| 20260901161610 | 67 | 171 | 4.0 | 8.0 | 0.00 | 0.00 | 0.00 | 62 | 1018.1 |
| 20260901161110 | 67 | 192 | 5.0 | 9.0 | 0.00 | 0.00 | 0.00 | 62 | 1018.2 |
| 20260901160607 | 67 | 308 | 4.0 | 11.0 | 0.00 | 0.00 | 0.00 | 59 | 1018.0 |
| 20260901155601 | 67 | 135 | 1.0 | 7.0 | 0.00 | 0.00 | 0.00 | 64 | 1017.5 |
| 20260901155056 | 66 | 222 | 6.0 | 8.0 | 0.00 | 0.00 | 0.00 | 64 | 1017.8 |
| 20260901154556 | 66 | 269 | 4.0 | 8.0 | 0.00 | 0.00 | 0.00 | 65 | 1017.7 |
| 20260901154045 | 66 | 172 | 6.0 | 9.0 | 0.00 | 0.00 | 0.00 | 66 | 1017.8 |
| 20260901153540 | 66 | 10 | 3.0 | 9.0 | 0.00 | 0.00 | 0.00 | 65 | 1017.5 |
| 20260901153034 | 65 | 189 | 6.0 | 9.0 | 0.00 | 0.00 | 0.00 | 65 | 1017.5 |
| 20260901152529 | 65 | 180 | 5.0 | 10.0 | 0.00 | 0.00 | 0.00 | 69 | 1017.6 |
| 20260901152028 | 64 | 183 | 4.0 | 10.0 | 0.00 | 0.00 | 0.00 | 70 | 1017.3 |
| 20260901151524 | 65 | 205 | 5.0 | 9.0 | 0.00 | 0.00 | 0.00 | 69 | 1017.3 |
| 20260901151023 | 64 | 184 | 3.0 | 10.0 | 0.00 | 0.00 | 0.00 | 67 | 1017.3 |
| 20260901150521 | 64 | 211 | 3.0 | 8.0 | 0.00 | 0.00 | 0.00 | 67 | 1017.3 |
| 20260901150019 | 64 | 345 | 3.0 | 9.0 | 0.00 | 0.00 | 0.00 | 65 | 1017.0 |
| 20260901145512 | 64 | 181 | 2.0 | 8.0 | 0.00 | 0.00 | 0.00 | 66 | 1017.1 |
| 20260901145007 | 64 | 144 | 2.0 | 7.0 | 0.00 | 0.00 | 0.00 | 67 | 1017.0 |
| 20260901144503 | 64 | 201 | 4.0 | 9.0 | 0.00 | 0.00 | 0.00 | 69 | 1016.9 |
| 20260901143957 | 63 | 174 | 2.0 | 7.0 | 0.00 | 0.00 | 0.00 | 69 | 1017.1 |
| 20260901143453 | 63 | 136 | 4.0 | 10.0 | 0.00 | 0.00 | 0.00 | 70 | 1016.8 |
| 20260901142949 | 63 | 55 | 3.0 | 9.0 | 0.00 | 0.00 | 0.00 | 68 | 1016.8 |
| 20260901142444 | 63 | 97 | 3.0 | 8.0 | 0.00 | 0.00 | 0.00 | 70 | 1016.9 |
| 20260901141938 | 62 | 141 | 2.0 | 4.0 | 0.00 | 0.00 | 0.00 | 71 | 1016.7 |
| 20260901141433 | 62 | 230 | 3.0 | 6.0 | 0.00 | 0.00 | 0.00 | 71 | 1016.7 |
| 20260901140928 | 62 | 237 | 6.0 | 8.0 | 0.00 | 0.00 | 0.00 | 71 | 1016.7 |
| 20260901140426 | 62 | 137 | 3.0 | 11.0 | 0.00 | 0.00 | 0.00 | 72 | 1016.6 |
| 20260901135920 | 62 | 218 | 4.0 | 6.0 | 0.00 | 0.00 | 0.00 | 71 | 1016.7 |
| 20260901135415 | 61 | 196 | 3.0 | 6.0 | 0.00 | 0.00 | 0.00 | 72 | 1016.6 |
| 20260901134911 | 61 | 150 | 3.0 | 7.0 | 0.00 | 0.00 | 0.00 | 73 | 1016.4 |
| 20260901134407 | 61 | 224 | 4.0 | 7.0 | 0.00 | 0.00 | 0.00 | 74 | 1016.4 |
| 20260901133906 | 61 | 231 | 7.0 | 9.0 | 0.00 | 0.00 | 0.00 | 74 | 1016.3 |
| 20260901133400 | 61 | 225 | 6.0 | 10.0 | 0.00 | 0.00 | 0.00 | 74 | 1016.1 |
| 20260901132858 | 61 | 170 | 2.0 | 4.0 | 0.00 | 0.00 | 0.00 | 75 | 1016.2 |
| 20260901132353 | 61 | 186 | 2.0 | 7.0 | 0.00 | 0.00 | 0.00 | 74 | 1016.3 |
| 20260901131847 | 61 | 160 | 5.0 | 7.0 | 0.00 | 0.00 | 0.00 | 73 | 1016.3 |
| 20260901131346 | 61 | 191 | 5.0 | 10.0 | 0.00 | 0.00 | 0.00 | 74 | 1016.1 |
| 20260901130842 | 61 | 192 | 4.0 | 7.0 | 0.00 | 0.00 | 0.00 | 75 | 1016.3 |
| 20260901130337 | 61 | 208 | 3.0 | 8.0 | 0.00 | 0.00 | 0.00 | 78 | 1016.4 |
| 20260901125835 | 61 | 218 | 2.0 | 6.0 | 0.00 | 0.00 | 0.00 | 79 | 1016.3 |
| 20260901125334 | 61 | 203 | 5.0 | 8.0 | 0.00 | 0.00 | 0.00 | 79 | 1016.1 |
| 20260901124829 | 61 | 197 | 2.0 | 7.0 | 0.00 | 0.00 | 0.00 | 79 | 1015.9 |
| 20260901124324 | 60 | 203 | 4.0 | 7.0 | 0.00 | 0.00 | 0.00 | 79 | 1016.2 |
| 20260901123824 | 60 | 151 | 3.0 | 6.0 | 0.00 | 0.00 | 0.00 | 79 | 1016.0 |
| 20260901123319 | 60 | 176 | 3.0 | 4.0 | 0.00 | 0.00 | 0.00 | 79 | 1016.1 |
| 20260901122817 | 61 | 188 | 3.0 | 4.0 | 0.00 | 0.00 | 0.00 | 79 | 1016.0 |
| 20260901122312 | 61 | 153 | 5.0 | 9.0 | 0.00 | 0.00 | 0.00 | 78 | 1015.8 |
| 20260901121811 | 61 | 153 | 6.0 | 9.0 | 0.00 | 0.00 | 0.00 | 77 | 1015.7 |
| 20260901121307 | 61 | 197 | 2.0 | 8.0 | 0.00 | 0.00 | 0.00 | 78 | 1015.6 |
| 20260901120806 | 61 | 170 | 4.0 | 9.0 | 0.00 | 0.00 | 0.00 | 78 | 1015.6 |
| 20260901120301 | 61 | 203 | 7.0 | 10.0 | 0.00 | 0.00 | 0.00 | 78 | 1015.6 |
| 20260901115757 | 61 | 295 | 3.0 | 10.0 | 0.00 | 0.00 | 0.00 | 77 | 1015.9 |
| 20260901115252 | 61 | 306 | 5.0 | 10.0 | 0.00 | 0.00 | 0.00 | 77 | 1015.6 |
| 20260901114749 | 61 | 200 | 3.0 | 9.0 | 0.00 | 0.00 | 0.00 | 76 | 1015.9 |
| 20260901114245 | 61 | 189 | 4.0 | 8.0 | 0.00 | 0.00 | 0.00 | 75 | 1015.8 |
| 20260901113742 | 61 | 174 | 6.0 | 9.0 | 0.00 | 0.00 | 0.00 | 75 | 1015.8 |
| 20260901113237 | 61 | 155 | 4.0 | 8.0 | 0.00 | 0.00 | 0.00 | 76 | 1015.6 |
| 20260901112732 | 61 | 190 | 6.0 | 10.0 | 0.00 | 0.00 | 0.00 | 76 | 1015.8 |
| 20260901112232 | 61 | 296 | 4.0 | 8.0 | 0.00 | 0.00 | 0.00 | 76 | 1015.9 |
| 20260901111727 | 61 | 95 | 4.0 | 9.0 | 0.00 | 0.00 | 0.00 | 76 | 1016.0 |
| 20260901111226 | 61 | 175 | 2.0 | 6.0 | 0.00 | 0.00 | 0.00 | 76 | 1015.8 |
| 20260901110720 | 61 | 212 | 3.0 | 10.0 | 0.00 | 0.00 | 0.00 | 76 | 1015.6 |
| 20260901110215 | 61 | 219 | 3.0 | 8.0 | 0.00 | 0.00 | 0.00 | 75 | 1015.8 |
| 20260901105712 | 61 | 167 | 4.0 | 7.0 | 0.00 | 0.00 | 0.00 | 75 | 1015.7 |
| 20260901105212 | 61 | 214 | 5.0 | 11.0 | 0.00 | 0.00 | 0.00 | 75 | 1015.7 |
| 20260901104708 | 61 | 188 | 3.0 | 6.0 | 0.00 | 0.00 | 0.00 | 75 | 1015.7 |
| 20260901104203 | 61 | 189 | 5.0 | 9.0 | 0.00 | 0.00 | 0.00 | 75 | 1015.7 |
| 20260901103702 | 61 | 225 | 3.0 | 7.0 | 0.00 | 0.00 | 0.00 | 75 | 1015.4 |
| 20260901103158 | 61 | 260 | 4.0 | 9.0 | 0.00 | 0.00 | 0.00 | 75 | 1015.5 |
| 20260901102658 | 61 | 234 | 4.0 | 9.0 | 0.00 | 0.00 | 0.00 | 75 | 1015.5 |
| 20260901102157 | 61 | 185 | 5.0 | 7.0 | 0.00 | 0.00 | 0.00 | 75 | 1015.5 |
| 20260901101653 | 61 | 238 | 5.0 | 10.0 | 0.00 | 0.00 | 0.00 | 74 | 1015.4 |
| 20260901101153 | 61 | 207 | 6.0 | 9.0 | 0.00 | 0.00 | 0.00 | 74 | 1015.3 |
| 20260901100647 | 61 | 217 | 6.0 | 8.0 | 0.00 | 0.00 | 0.00 | 73 | 1015.3 |
| 20260901100142 | 61 | 240 | 4.0 | 9.0 | 0.00 | 0.00 | 0.00 | 73 | 1015.3 |
| 20260901095640 | 61 | 347 | 4.0 | 10.0 | 0.00 | 0.00 | 0.00 | 74 | 1015.2 |
| 20260901095138 | 61 | 148 | 4.0 | 8.0 | 0.00 | 0.00 | 0.00 | 74 | 1015.2 |
| 20260901094632 | 61 | 282 | 7.0 | 16.0 | 0.00 | 0.00 | 0.00 | 73 | 1015.3 |
| 20260901094126 | 61 | 293 | 3.0 | 9.0 | 0.00 | 0.00 | 0.00 | 72 | 1015.4 |
| 20260901093616 | 61 | 166 | 3.0 | 7.0 | 0.00 | 0.00 | 0.00 | 74 | 1015.3 |
| 20260901093115 | 61 | 263 | 5.0 | 9.0 | 0.00 | 0.00 | 0.00 | 74 | 1015.5 |
| 20260901092611 | 61 | 312 | 3.0 | 7.0 | 0.00 | 0.00 | 0.00 | 74 | 1015.4 |
| 20260901092107 | 61 | 303 | 3.0 | 7.0 | 0.00 | 0.00 | 0.00 | 74 | 1015.7 |
| 20260901091603 | 61 | 200 | 3.0 | 9.0 | 0.00 | 0.00 | 0.00 | 74 | 1015.5 |
| 20260901091058 | 61 | 220 | 7.0 | 10.0 | 0.00 | 0.00 | 0.00 | 74 | 1015.4 |
| 20260901090557 | 61 | 154 | 6.0 | 11.0 | 0.00 | 0.00 | 0.00 | 73 | 1015.5 |
| 20260901090053 | 61 | 174 | 5.0 | 8.0 | 0.00 | 0.00 | 0.00 | 73 | 1015.4 |
| 20260901085548 | 61 | 187 | 4.0 | 10.0 | 0.00 | 0.00 | 0.00 | 73 | 1015.5 |
| 20260901085044 | 61 | 136 | 6.0 | 11.0 | 0.00 | 0.00 | 0.00 | 73 | 1015.5 |
| 20260901084540 | 61 | 165 | 6.0 | 8.0 | 0.00 | 0.00 | 0.00 | 73 | 1015.4 |
| 20260901084036 | 61 | 174 | 5.0 | 10.0 | 0.00 | 0.00 | 0.00 | 73 | 1015.5 |
| 20260901083530 | 61 | 186 | 3.0 | 8.0 | 0.00 | 0.00 | 0.00 | 73 | 1015.4 |
| 20260901083028 | 61 | 203 | 4.0 | 10.0 | 0.00 | 0.00 | 0.00 | 73 | 1015.6 |
| 20260901082524 | 61 | 209 | 6.0 | 10.0 | 0.00 | 0.00 | 0.00 | 73 | 1015.5 |
| 20260901082019 | 61 | 231 | 7.0 | 9.0 | 0.00 | 0.00 | 0.00 | 73 | 1015.5 |
| 20260901081514 | 61 | 201 | 6.0 | 9.0 | 0.00 | 0.00 | 0.00 | 73 | 1015.7 |
| 20260901081008 | 61 | 203 | 3.0 | 6.0 | 0.00 | 0.00 | 0.00 | 73 | 1015.5 |
| 20260901080508 | 61 | 205 | 4.0 | 8.0 | 0.00 | 0.00 | 0.00 | 73 | 1015.6 |
| 20260901080002 | 61 | 154 | 8.0 | 10.0 | 0.00 | 0.00 | 0.00 | 72 | 1015.6 |
| 20260901075458 | 61 | 293 | 3.0 | 8.0 | 0.00 | 0.00 | 0.00 | 72 | 1015.7 |
| 20260901074956 | 61 | 253 | 7.0 | 11.0 | 0.00 | 0.00 | 0.00 | 72 | 1015.5 |
| 20260901074451 | 61 | 121 | 1.0 | 9.0 | 0.00 | 0.00 | 0.00 | 72 | 1015.4 |
| 20260901073946 | 61 | 184 | 4.0 | 9.0 | 0.00 | 0.00 | 0.00 | 72 | 1015.4 |
| 20260901073443 | 61 | 198 | 7.0 | 11.0 | 0.00 | 0.00 | 0.00 | 72 | 1015.3 |
| 20260901072943 | 61 | 206 | 6.0 | 11.0 | 0.00 | 0.00 | 0.00 | 71 | 1015.4 |
| 20260901072438 | 61 | 173 | 6.0 | 10.0 | 0.00 | 0.00 | 0.00 | 71 | 1015.6 |
| 20260901071933 | 61 | 270 | 6.0 | 9.0 | 0.00 | 0.00 | 0.00 | 72 | 1015.5 |
| 20260901071432 | 61 | 253 | 4.0 | 11.0 | 0.00 | 0.00 | 0.00 | 72 | 1015.6 |
| 20260901070932 | 61 | 213 | 3.0 | 10.0 | 0.00 | 0.00 | 0.00 | 72 | 1015.6 |
| 20260901070427 | 61 | 194 | 3.0 | 10.0 | 0.00 | 0.00 | 0.00 | 72 | 1015.7 |
| 20260901065926 | 61 | 179 | 2.0 | 9.0 | 0.00 | 0.00 | 0.00 | 72 | 1015.6 |
| 20260901065422 | 61 | 170 | 6.0 | 9.0 | 0.00 | 0.00 | 0.00 | 73 | 1015.4 |
| 20260901064917 | 61 | 248 | 2.0 | 7.0 | 0.00 | 0.00 | 0.00 | 73 | 1015.5 |
| 20260901064413 | 61 | 214 | 6.0 | 9.0 | 0.00 | 0.00 | 0.00 | 73 | 1015.4 |
| 20260901063910 | 61 | 168 | 5.0 | 13.0 | 0.00 | 0.00 | 0.00 | 73 | 1015.5 |
| 20260901063406 | 61 | 356 | 3.0 | 8.0 | 0.00 | 0.00 | 0.00 | 73 | 1015.5 |
| 20260901062856 | 61 | 247 | 7.0 | 13.0 | 0.00 | 0.00 | 0.00 | 72 | 1015.7 |
| 20260901062352 | 61 | 233 | 5.0 | 9.0 | 0.00 | 0.00 | 0.00 | 72 | 1015.6 |
| 20260901061847 | 61 | 157 | 8.0 | 11.0 | 0.00 | 0.00 | 0.00 | 72 | 1015.7 |
| 20260901061342 | 61 | 166 | 5.0 | 11.0 | 0.00 | 0.00 | 0.00 | 72 | 1015.7 |
| 20260901060832 | 61 | 221 | 6.0 | 11.0 | 0.00 | 0.00 | 0.00 | 72 | 1015.7 |
| 20260901060328 | 61 | 189 | 5.0 | 7.0 | 0.00 | 0.00 | 0.00 | 72 | 1015.6 |
| 20260901055827 | 61 | 278 | 2.0 | 8.0 | 0.00 | 0.00 | 0.00 | 73 | 1015.9 |
| 20260901055324 | 61 | 267 | 8.0 | 13.0 | 0.00 | 0.00 | 0.00 | 73 | 1015.8 |
| 20260901054820 | 60 | 175 | 3.0 | 8.0 | 0.00 | 0.00 | 0.00 | 73 | 1015.7 |
| 20260901054317 | 60 | 307 | 4.0 | 7.0 | 0.00 | 0.00 | 0.00 | 73 | 1015.7 |
| 20260901053813 | 60 | 211 | 9.0 | 15.0 | 0.00 | 0.00 | 0.00 | 73 | 1015.7 |
| 20260901053307 | 60 | 210 | 5.0 | 8.0 | 0.00 | 0.00 | 0.00 | 74 | 1015.6 |
| 20260901052757 | 60 | 221 | 7.0 | 11.0 | 0.00 | 0.00 | 0.00 | 74 | 1015.7 |
| 20260901052253 | 60 | 148 | 4.0 | 7.0 | 0.00 | 0.00 | 0.00 | 73 | 1015.8 |
| 20260901051751 | 60 | 224 | 6.0 | 9.0 | 0.00 | 0.00 | 0.00 | 73 | 1015.5 |
| 20260901051246 | 60 | 218 | 6.0 | 9.0 | 0.00 | 0.00 | 0.00 | 73 | 1015.6 |
| 20260901050742 | 60 | 262 | 4.0 | 10.0 | 0.00 | 0.00 | 0.00 | 73 | 1015.5 |
| 20260901050237 | 60 | 155 | 2.0 | 14.0 | 0.00 | 0.00 | 0.00 | 73 | 1015.5 |
| 20260901045732 | 60 | 292 | 6.0 | 8.0 | 0.00 | 0.00 | 0.00 | 73 | 1015.6 |
| 20260901045227 | 60 | 166 | 6.0 | 8.0 | 0.00 | 0.00 | 0.00 | 73 | 1015.7 |
| 20260901044722 | 60 | 122 | 5.0 | 9.0 | 0.00 | 0.00 | 0.00 | 73 | 1015.5 |
| 20260901044219 | 60 | 197 | 4.0 | 10.0 | 0.00 | 0.00 | 0.00 | 73 | 1015.3 |
| 20260901043714 | 61 | 114 | 2.0 | 8.0 | 0.00 | 0.00 | 0.00 | 73 | 1015.5 |
| 20260901043209 | 61 | 194 | 4.0 | 10.0 | 0.00 | 0.00 | 0.00 | 72 | 1015.7 |
| 20260901042709 | 61 | 171 | 2.0 | 10.0 | 0.00 | 0.00 | 0.00 | 72 | 1015.6 |
| 20260901042203 | 61 | 227 | 6.0 | 11.0 | 0.00 | 0.00 | 0.00 | 72 | 1015.6 |
| 20260901041659 | 61 | 216 | 5.0 | 13.0 | 0.00 | 0.00 | 0.00 | 72 | 1015.5 |
| 20260901041158 | 61 | 177 | 4.0 | 13.0 | 0.00 | 0.00 | 0.00 | 72 | 1015.4 |
| 20260901040653 | 61 | 238 | 4.0 | 9.0 | 0.00 | 0.00 | 0.00 | 72 | 1015.4 |
| 20260901040147 | 61 | 356 | 3.0 | 8.0 | 0.00 | 0.00 | 0.00 | 72 | 1015.3 |
| 20260901035646 | 61 | 214 | 6.0 | 9.0 | 0.00 | 0.00 | 0.00 | 72 | 1015.2 |
| 20260901035144 | 61 | 199 | 9.0 | 13.0 | 0.00 | 0.00 | 0.00 | 73 | 1015.3 |
| 20260901034638 | 61 | 145 | 10.0 | 15.0 | 0.00 | 0.00 | 0.00 | 73 | 1014.9 |
| 20260901034133 | 61 | 195 | 8.0 | 15.0 | 0.00 | 0.00 | 0.00 | 73 | 1014.9 |
| 20260901033632 | 61 | 189 | 6.0 | 16.0 | 0.00 | 0.00 | 0.00 | 72 | 1014.8 |
| 20260901033132 | 61 | 162 | 11.0 | 17.0 | 0.00 | 0.00 | 0.00 | 73 | 1014.6 |
| 20260901032630 | 61 | 205 | 5.0 | 16.0 | 0.00 | 0.00 | 0.00 | 73 | 1014.7 |
| 20260901032126 | 61 | 218 | 10.0 | 16.0 | 0.00 | 0.00 | 0.00 | 73 | 1014.2 |
| 20260901031621 | 61 | 213 | 11.0 | 16.0 | 0.00 | 0.00 | 0.00 | 72 | 1014.4 |
| 20260901031117 | 61 | 237 | 8.0 | 16.0 | 0.00 | 0.00 | 0.00 | 72 | 1014.5 |
| 20260901030617 | 61 | 263 | 6.0 | 16.0 | 0.00 | 0.00 | 0.00 | 72 | 1014.4 |
| 20260901030111 | 61 | 206 | 10.0 | 14.0 | 0.00 | 0.00 | 0.00 | 72 | 1014.3 |
| 20260901025606 | 61 | 192 | 9.0 | 13.0 | 0.00 | 0.00 | 0.00 | 72 | 1014.3 |
| 20260901025101 | 61 | 121 | 8.0 | 18.0 | 0.00 | 0.00 | 0.00 | 72 | 1014.8 |
| 20260901024555 | 61 | 244 | 5.0 | 11.0 | 0.00 | 0.00 | 0.00 | 72 | 1014.8 |
| 20260901024054 | 61 | 186 | 5.0 | 9.0 | 0.00 | 0.00 | 0.00 | 72 | 1014.3 |
| 20260901023553 | 62 | 235 | 4.0 | 10.0 | 0.00 | 0.00 | 0.00 | 71 | 1014.7 |
| 20260901023048 | 62 | 130 | 1.0 | 10.0 | 0.00 | 0.00 | 0.00 | 71 | 1014.5 |
| 20260901022543 | 62 | 280 | 5.0 | 8.0 | 0.00 | 0.00 | 0.00 | 71 | 1014.6 |
| 20260901022039 | 62 | 292 | 6.0 | 11.0 | 0.00 | 0.00 | 0.00 | 71 | 1014.3 |
| 20260901021534 | 62 | 297 | 4.0 | 8.0 | 0.00 | 0.00 | 0.00 | 70 | 1014.4 |
| 20260901021030 | 62 | 176 | 7.0 | 13.0 | 0.00 | 0.00 | 0.00 | 70 | 1014.3 |
| 20260901020525 | 63 | 46 | 1.0 | 7.0 | 0.00 | 0.00 | 0.00 | 70 | 1014.4 |
| 20260901020020 | 63 | 211 | 3.0 | 4.0 | 0.00 | 0.00 | 0.00 | 69 | 1014.4 |
| 20260901015516 | 64 | 317 | 7.0 | 9.0 | 0.00 | 0.00 | 0.00 | 68 | 1014.2 |
| 20260901015015 | 64 | 198 | 6.0 | 8.0 | 0.00 | 0.00 | 0.00 | 67 | 1014.2 |
| 20260901014511 | 64 | 201 | 1.0 | 4.0 | 0.00 | 0.00 | 0.00 | 67 | 1014.3 |
| 20260901014007 | 64 | 326 | 7.0 | 13.0 | 0.00 | 0.00 | 0.00 | 68 | 1014.4 |
| 20260901013502 | 64 | 297 | 7.0 | 17.0 | 0.00 | 0.00 | 0.00 | 68 | 1014.4 |
| 20260901012958 | 65 | 242 | 5.0 | 15.0 | 0.00 | 0.00 | 0.00 | 67 | 1014.3 |
| 20260901012457 | 65 | 276 | 5.0 | 14.0 | 0.00 | 0.00 | 0.00 | 67 | 1014.2 |
| 20260901011953 | 65 | 267 | 4.0 | 9.0 | 0.00 | 0.00 | 0.00 | 66 | 1014.3 |
| 20260901011449 | 66 | 255 | 9.0 | 16.0 | 0.00 | 0.00 | 0.00 | 66 | 1014.0 |
| 20260901010946 | 67 | 328 | 6.0 | 10.0 | 0.00 | 0.00 | 0.00 | 63 | 1014.2 |
| 20260901010442 | 67 | 297 | 4.0 | 10.0 | 0.00 | 0.00 | 0.00 | 64 | 1014.1 |
| 20260901005941 | 67 | 293 | 4.0 | 8.0 | 0.00 | 0.00 | 0.00 | 63 | 1014.3 |
| 20260901005436 | 67 | 291 | 3.0 | 11.0 | 0.00 | 0.00 | 0.00 | 63 | 1014.2 |